Flight Track Log - Related Links

Times and Time Zones

All times are in EDT time to prevent confusion due to time zone crossing. See the AMF1324 flight status page for this flight to view local times or setup timezone preferences in your user account.

Time Position Orientation Groundspeed Altitude Reporting Facility
EDT Latitude Longitude Course Direction KTS MPH feet Rate Location/Type
Wed 06:52:49 AM 42.9333 -78.7500 180° South 159 183 1,300  Level Buffalo TRACON
Wed 06:53:01 AM 42.9167 -78.7500 180° South 154 177 1,700 1,613 Climbing Buffalo TRACON
Wed 06:55:29 AM 42.8778 -78.6383 115° Southeast 191 220 5,600 1,457 Climbing Cleveland Center
Wed 06:56:31 AM 42.8786 -78.5711 89° East 199 229 6,800 1,317 Climbing Cleveland Center
Wed 06:57:32 AM 42.8803 -78.4894 88° East 191 220 8,300 1,426 Climbing Cleveland Center
Wed 06:58:33 AM 42.8808 -78.4161 89° East 186 214 9,700 1,317 Climbing Cleveland Center
Wed 06:59:35 AM 42.8767 -78.3422 94° East 187 215 11,000 1,220 Climbing Cleveland Center
Wed 07:00:36 AM 42.8689 -78.2739 99° East 185 213 12,200 976 Climbing Cleveland Center
Wed 07:01:38 AM 42.8586 -78.2031 101° East 190 219 13,000 390 Climbing Cleveland Center
Wed 07:02:39 AM 42.8456 -78.1200 102° East 227 261 13,000  Level Cleveland Center
Wed 07:03:41 AM 42.8325 -78.0289 101° East 243 280 13,000  Level Cleveland Center
Wed 07:04:42 AM 42.8283 -77.9386 94° East 240 276 13,000 -49 Level Cleveland Center
Wed 07:05:44 AM 42.8272 -77.8478 91° East 239 275 12,900 -49 Descending Cleveland Center
Wed 07:06:45 AM 42.8286 -77.7572 89° East 240 276 12,900  Level Cleveland Center
Wed 07:07:47 AM 42.8081 -77.6747 109° East 238 274 12,900  Level Cleveland Center
Wed 07:08:48 AM 42.7711 -77.5786 118° Southeast 237 273 12,900  Level Cleveland Center
Wed 07:09:50 AM 42.7397 -77.4983 118° Southeast 237 273 12,900 -242 Level Cleveland Center
Wed 07:10:52 AM 42.7058 -77.4183 120° Southeast 241 277 12,400 -585 Descending Cleveland Center
Wed 07:11:53 AM 42.6697 -77.3353 121° Southeast 249 287 11,700 -585 Descending Cleveland Center
Wed 07:12:55 AM 42.6344 -77.2508 120° Southeast 255 293 11,200 -390 Descending Cleveland Center
Wed 07:13:56 AM 42.6014 -77.1669 118° Southeast 255 293 10,900 -98 Descending Cleveland Center
Wed 07:14:58 AM 42.5719 -77.0875 117° Southeast 242 278 11,000 49 Climbing Cleveland Center
Wed 07:15:59 AM 42.5417 -77.0064 117° Southeast 241 277 11,000  Level Cleveland Center
Wed 07:17:01 AM 42.5139 -76.9278 116° Southeast 235 270 11,000 -146 Level Cleveland Center
Wed 07:18:02 AM 42.4783 -76.8308 116° Southeast 238 274 10,700 -634 Descending Cleveland Center
Wed 07:19:04 AM 42.4419 -76.7483 121° Southeast 249 287 9,700 -829 Descending Cleveland Center
Wed 07:20:05 AM 42.4044 -76.6611 120° Southeast 261 300 9,000 -341 Descending Cleveland Center
Wed 07:21:07 AM 42.3703 -76.5767 119° Southeast 261 300 9,000 -341 Level Cleveland Center
Wed 07:22:08 AM 42.3508 -76.4864 106° East 253 291 8,300 -1,073 Descending Cleveland Center
Wed 07:23:10 AM 42.3250 -76.3917 110° East 263 303 6,800 -1,415 Descending Cleveland Center
Wed 07:24:11 AM 42.3047 -76.2950 106° East 270 311 5,400 -1,171 Descending Cleveland Center
Wed 07:25:13 AM 42.2978 -76.1975 95° East 237 273 4,400 -634 Descending Cleveland Center
Wed 07:26:14 AM 42.2978 -76.1347 90° East 218 251 4,100 -441 Descending Cleveland Center
Wed 07:27:29 AM 42.2767 -76.0481 108° East 191 220 3,400 -756 Descending New York Center
Wed 07:28:29 AM 42.2428 -76.0144 144° Southeast 148 170 2,400 -600 Descending New York Center
Wed 07:29:29 AM 42.2181 -75.9619 122° Southeast 148 170 2,200 -200 Descending New York Center

Login

Don't have an account? Register now (free) for customized features, flight alerts, and more!